sensor_id;sensor_type;location;lat;lon;timestamp;pressure;altitude;pressure_sealevel;temperature;humidity
2184;BME280;1098;48.940;8.962;2023-04-28T00:01:30;98324.78;;;12.09;100.00
2184;BME280;1098;48.940;8.962;2023-04-28T00:03:59;98326.34;;;12.04;100.00
2184;BME280;1098;48.940;8.962;2023-04-28T00:06:28;98332.75;;;11.52;100.00
2184;BME280;1098;48.940;8.962;2023-04-28T00:08:56;98332.84;;;11.45;100.00
2184;BME280;1098;48.940;8.962;2023-04-28T00:11:24;98333.94;;;11.79;100.00
2184;BME280;1098;48.940;8.962;2023-04-28T00:13:52;98319.69;;;11.49;100.00
2184;BME280;1098;48.940;8.962;2023-04-28T00:16:20;98331.56;;;11.48;100.00
2184;BME280;1098;48.940;8.962;2023-04-28T00:18:49;98327.78;;;11.72;100.00
2184;BME280;1098;48.940;8.962;2023-04-28T00:21:19;98322.81;;;11.92;100.00
2184;BME280;1098;48.940;8.962;2023-04-28T00:23:47;98316.75;;;12.14;100.00
2184;BME280;1098;48.940;8.962;2023-04-28T00:26:15;98317.69;;;11.56;100.00
2184;BME280;1098;48.940;8.962;2023-04-28T00:28:43;98316.31;;;11.42;100.00
2184;BME280;1098;48.940;8.962;2023-04-28T00:31:11;98313.47;;;11.36;100.00
2184;BME280;1098;48.940;8.962;2023-04-28T00:33:39;98315.94;;;11.50;100.00
2184;BME280;1098;48.940;8.962;2023-04-28T00:36:08;98313.47;;;11.36;100.00
2184;BME280;1098;48.940;8.962;2023-04-28T00:38:38;98311.72;;;11.42;100.00
2184;BME280;1098;48.940;8.962;2023-04-28T00:41:08;98306.88;;;11.44;100.00
2184;BME280;1098;48.940;8.962;2023-04-28T00:43:43;98313.84;;;11.17;100.00
2184;BME280;1098;48.940;8.962;2023-04-28T00:46:11;98310.66;;;11.08;100.00
2184;BME280;1098;48.940;8.962;2023-04-28T00:48:41;98304.44;;;11.19;100.00
2184;BME280;1098;48.940;8.962;2023-04-28T00:51:09;98300.19;;;11.12;100.00
2184;BME280;1098;48.940;8.962;2023-04-28T00:53:38;98292.06;;;10.88;100.00
2184;BME280;1098;48.940;8.962;2023-04-28T00:56:09;98291.34;;;10.81;100.00
2184;BME280;1098;48.940;8.962;2023-04-28T00:58:38;98294.41;;;10.85;100.00
2184;BME280;1098;48.940;8.962;2023-04-28T01:01:07;98297.94;;;10.85;100.00
2184;BME280;1098;48.940;8.962;2023-04-28T01:03:36;98294.53;;;10.90;100.00
2184;BME280;1098;48.940;8.962;2023-04-28T01:06:06;98279.72;;;10.92;100.00
2184;BME280;1098;48.940;8.962;2023-04-28T01:08:36;98285.13;;;10.92;100.00
2184;BME280;1098;48.940;8.962;2023-04-28T01:11:11;98285.59;;;11.13;100.00
2184;BME280;1098;48.940;8.962;2023-04-28T01:14:12;98274.31;;;11.04;100.00
2184;BME280;1098;48.940;8.962;2023-04-28T01:16:40;98274.31;;;10.92;100.00
2184;BME280;1098;48.940;8.962;2023-04-28T01:19:11;98260.47;;;11.00;100.00
2184;BME280;1098;48.940;8.962;2023-04-28T01:21:43;98255.75;;;11.08;100.00
2184;BME280;1098;48.940;8.962;2023-04-28T01:24:31;98254.31;;;10.82;100.00
2184;BME280;1098;48.940;8.962;2023-04-28T01:27:03;98255.16;;;10.94;100.00
2184;BME280;1098;48.940;8.962;2023-04-28T01:29:31;98255.03;;;10.77;100.00
2184;BME280;1098;48.940;8.962;2023-04-28T01:32:02;98253.16;;;10.78;100.00
2184;BME280;1098;48.940;8.962;2023-04-28T01:34:32;98260.69;;;10.76;100.00
2184;BME280;1098;48.940;8.962;2023-04-28T01:37:00;98257.50;;;10.67;100.00
2184;BME280;1098;48.940;8.962;2023-04-28T01:39:28;98248.19;;;10.63;100.00
2184;BME280;1098;48.940;8.962;2023-04-28T01:41:57;98248.78;;;10.65;100.00
2184;BME280;1098;48.940;8.962;2023-04-28T01:44:26;98249.50;;;10.72;100.00
2184;BME280;1098;48.940;8.962;2023-04-28T01:46:54;98246.56;;;10.62;100.00
2184;BME280;1098;48.940;8.962;2023-04-28T01:49:22;98246.69;;;10.67;100.00
2184;BME280;1098;48.940;8.962;2023-04-28T01:51:50;98244.56;;;10.69;100.00
2184;BME280;1098;48.940;8.962;2023-04-28T01:54:18;98240.59;;;10.72;100.00
2184;BME280;1098;48.940;8.962;2023-04-28T01:56:46;98236.13;;;10.77;100.00
2184;BME280;1098;48.940;8.962;2023-04-28T01:59:52;98232.94;;;10.68;100.00
2184;BME280;1098;48.940;8.962;2023-04-28T02:02:20;98233.31;;;10.72;100.00
2184;BME280;1098;48.940;8.962;2023-04-28T02:04:49;98235.97;;;10.60;100.00
2184;BME280;1098;48.940;8.962;2023-04-28T02:07:18;98232.94;;;10.68;100.00
2184;BME280;1098;48.940;8.962;2023-04-28T02:09:46;98232.13;;;10.68;100.00
2184;BME280;1098;48.940;8.962;2023-04-28T02:12:15;98231.28;;;10.67;100.00
2184;BME280;1098;48.940;8.962;2023-04-28T02:14:43;98234.34;;;10.71;100.00
2184;BME280;1098;48.940;8.962;2023-04-28T02:17:13;98240.81;;;10.70;100.00
2184;BME280;1098;48.940;8.962;2023-04-28T02:19:42;98237.84;;;10.60;100.00
2184;BME280;1098;48.940;8.962;2023-04-28T02:22:11;98238.66;;;10.49;100.00
2184;BME280;1098;48.940;8.962;2023-04-28T02:24:39;98240.91;;;10.52;100.00
2184;BME280;1098;48.940;8.962;2023-04-28T02:27:08;98241.88;;;10.57;100.00
2184;BME280;1098;48.940;8.962;2023-04-28T02:29:38;98237.53;;;10.68;100.00
2184;BME280;1098;48.940;8.962;2023-04-28T02:32:09;98247.75;;;10.78;100.00
2184;BME280;1098;48.940;8.962;2023-04-28T02:34:39;98241.41;;;10.84;100.00
2184;BME280;1098;48.940;8.962;2023-04-28T02:37:07;98244.81;;;10.91;100.00
2184;BME280;1098;48.940;8.962;2023-04-28T02:39:35;98236.72;;;10.91;100.00
2184;BME280;1098;48.940;8.962;2023-04-28T02:42:03;98241.66;;;10.94;100.00
2184;BME280;1098;48.940;8.962;2023-04-28T02:44:31;98126.78;;;10.03;100.00
2184;BME280;1098;48.940;8.962;2023-04-28T02:46:59;98258.81;;;10.88;100.00
2184;BME280;1098;48.940;8.962;2023-04-28T02:49:27;98256.69;;;10.90;100.00
2184;BME280;1098;48.940;8.962;2023-04-28T02:52:00;98259.84;;;10.87;100.00
2184;BME280;1098;48.940;8.962;2023-04-28T02:54:28;98257.88;;;10.94;100.00
2184;BME280;1098;48.940;8.962;2023-04-28T02:56:57;98244.47;;;11.11;100.00
2184;BME280;1098;48.940;8.962;2023-04-28T02:59:27;98246.78;;;11.30;100.00
2184;BME280;1098;48.940;8.962;2023-04-28T03:01:55;98250.63;;;11.46;100.00
2184;BME280;1098;48.940;8.962;2023-04-28T03:04:23;98246.06;;;11.47;100.00
2184;BME280;1098;48.940;8.962;2023-04-28T03:06:52;98237.03;;;11.29;100.00
2184;BME280;1098;48.940;8.962;2023-04-28T03:09:21;98236.41;;;11.51;100.00
2184;BME280;1098;48.940;8.962;2023-04-28T03:11:49;98227.28;;;11.68;100.00
2184;BME280;1098;48.940;8.962;2023-04-28T03:14:18;98218.22;;;11.75;100.00
2184;BME280;1098;48.940;8.962;2023-04-28T03:16:46;98220.41;;;11.49;100.00
2184;BME280;1098;48.940;8.962;2023-04-28T03:19:14;98216.94;;;11.65;100.00
2184;BME280;1098;48.940;8.962;2023-04-28T03:21:42;98230.09;;;11.33;100.00
2184;BME280;1098;48.940;8.962;2023-04-28T03:24:12;98219.97;;;11.41;100.00
2184;BME280;1098;48.940;8.962;2023-04-28T03:26:42;98184.69;;;11.64;100.00
2184;BME280;1098;48.940;8.962;2023-04-28T03:29:10;98210.22;;;11.40;100.00
2184;BME280;1098;48.940;8.962;2023-04-28T03:31:38;98195.75;;;11.74;100.00
2184;BME280;1098;48.940;8.962;2023-04-28T03:34:06;98198.91;;;11.71;100.00
2184;BME280;1098;48.940;8.962;2023-04-28T03:36:35;98195.69;;;11.57;100.00
2184;BME280;1098;48.940;8.962;2023-04-28T03:39:11;98205.03;;;11.38;100.00
2184;BME280;1098;48.940;8.962;2023-04-28T03:41:40;98197.47;;;11.52;100.00
2184;BME280;1098;48.940;8.962;2023-04-28T03:44:32;98199.41;;;11.68;100.00
2184;BME280;1098;48.940;8.962;2023-04-28T03:47:00;98194.56;;;11.70;100.00
2184;BME280;1098;48.940;8.962;2023-04-28T03:49:29;98206.03;;;11.60;100.00
2184;BME280;1098;48.940;8.962;2023-04-28T03:51:57;98203.28;;;11.72;100.00
2184;BME280;1098;48.940;8.962;2023-04-28T03:54:25;98195.16;;;11.72;100.00
2184;BME280;1098;48.940;8.962;2023-04-28T03:56:53;98198.56;;;11.27;100.00
2184;BME280;1098;48.940;8.962;2023-04-28T03:59:22;98200.03;;;11.18;100.00
2184;BME280;1098;48.940;8.962;2023-04-28T04:01:51;98191.31;;;11.16;100.00
2184;BME280;1098;48.940;8.962;2023-04-28T04:04:20;98194.69;;;11.35;100.00
2184;BME280;1098;48.940;8.962;2023-04-28T04:06:49;98198.56;;;11.27;100.00
2184;BME280;1098;48.940;8.962;2023-04-28T04:09:17;98201.31;;;11.16;100.00
2184;BME280;1098;48.940;8.962;2023-04-28T04:11:45;98197.91;;;11.20;100.00
2184;BME280;1098;48.940;8.962;2023-04-28T04:14:15;98196.94;;;11.26;100.00
2184;BME280;1098;48.940;8.962;2023-04-28T04:16:46;98196.72;;;11.16;100.00
2184;BME280;1098;48.940;8.962;2023-04-28T04:19:16;98200.22;;;11.28;100.00
2184;BME280;1098;48.940;8.962;2023-04-28T04:21:48;98201.88;;;11.29;100.00
2184;BME280;1098;48.940;8.962;2023-04-28T04:24:18;98199.47;;;11.45;100.00
2184;BME280;1098;48.940;8.962;2023-04-28T04:26:46;98190.22;;;11.29;100.00
2184;BME280;1098;48.940;8.962;2023-04-28T04:29:27;98188.38;;;11.18;100.00
2184;BME280;1098;48.940;8.962;2023-04-28T04:31:58;98184.69;;;11.24;100.00
2184;BME280;1098;48.940;8.962;2023-04-28T04:34:28;98186.59;;;11.23;100.00
2184;BME280;1098;48.940;8.962;2023-04-28T04:36:56;98181.28;;;11.40;100.00
2184;BME280;1098;48.940;8.962;2023-04-28T04:39:24;98184.22;;;11.39;100.00
2184;BME280;1098;48.940;8.962;2023-04-28T04:41:52;98173.59;;;11.49;100.00
2184;BME280;1098;48.940;8.962;2023-04-28T04:44:32;98164.28;;;11.16;100.00
2184;BME280;1098;48.940;8.962;2023-04-28T04:47:00;98168.72;;;11.22;100.00
2184;BME280;1098;48.940;8.962;2023-04-28T04:49:31;98170.03;;;11.20;100.00
2184;BME280;1098;48.940;8.962;2023-04-28T04:52:00;98169.44;;;11.18;100.00
2184;BME280;1098;48.940;8.962;2023-04-28T04:54:29;98166.81;;;11.34;100.00
2184;BME280;1098;48.940;8.962;2023-04-28T04:56:57;98167.91;;;11.62;100.00
2184;BME280;1098;48.940;8.962;2023-04-28T04:59:45;98171.22;;;11.52;100.00
2184;BME280;1098;48.940;8.962;2023-04-28T05:02:16;98169.56;;;11.63;100.00
2184;BME280;1098;48.940;8.962;2023-04-28T05:04:48;98167.66;;;11.92;100.00
2184;BME280;1098;48.940;8.962;2023-04-28T05:07:16;98177.50;;;11.69;100.00
2184;BME280;1098;48.940;8.962;2023-04-28T05:09:44;98188.97;;;11.60;100.00
2184;BME280;1098;48.940;8.962;2023-04-28T05:12:16;98195.22;;;11.49;100.00
2184;BME280;1098;48.940;8.962;2023-04-28T05:14:46;98203.63;;;11.76;100.00
2184;BME280;1098;48.940;8.962;2023-04-28T05:17:17;98188.03;;;11.94;100.00
2184;BME280;1098;48.940;8.962;2023-04-28T05:19:51;98182.94;;;11.98;100.00
2184;BME280;1098;48.940;8.962;2023-04-28T05:22:19;98177.56;;;12.15;100.00
2184;BME280;1098;48.940;8.962;2023-04-28T05:24:47;98176.50;;;12.32;100.00
2184;BME280;1098;48.940;8.962;2023-04-28T05:27:15;98175.84;;;12.25;100.00
2184;BME280;1098;48.940;8.962;2023-04-28T05:29:43;98181.00;;;12.10;100.00
2184;BME280;1098;48.940;8.962;2023-04-28T05:32:14;98191.19;;;12.03;100.00
2184;BME280;1098;48.940;8.962;2023-04-28T05:34:42;98190.13;;;12.21;100.00
2184;BME280;1098;48.940;8.962;2023-04-28T05:37:12;98185.94;;;12.13;100.00
2184;BME280;1098;48.940;8.962;2023-04-28T05:39:42;98185.34;;;12.28;100.00
2184;BME280;1098;48.940;8.962;2023-04-28T05:42:11;98186.25;;;12.00;100.00
2184;BME280;1098;48.940;8.962;2023-04-28T05:44:41;98187.66;;;12.36;100.00
2184;BME280;1098;48.940;8.962;2023-04-28T05:47:09;98180.75;;;12.28;100.00
2184;BME280;1098;48.940;8.962;2023-04-28T05:49:38;98182.09;;;12.26;100.00
2184;BME280;1098;48.940;8.962;2023-04-28T05:52:08;98172.16;;;12.31;100.00
2184;BME280;1098;48.940;8.962;2023-04-28T05:54:37;98174.09;;;12.69;100.00
2184;BME280;1098;48.940;8.962;2023-04-28T05:57:05;98169.44;;;12.65;100.00
2184;BME280;1098;48.940;8.962;2023-04-28T05:59:38;98176.59;;;12.37;100.00
2184;BME280;1098;48.940;8.962;2023-04-28T06:02:06;98179.28;;;12.54;100.00
2184;BME280;1098;48.940;8.962;2023-04-28T06:04:36;98168.47;;;12.93;100.00
2184;BME280;1098;48.940;8.962;2023-04-28T06:07:08;98169.91;;;12.12;100.00
2184;BME280;1098;48.940;8.962;2023-04-28T06:09:39;98182.59;;;12.39;100.00
2184;BME280;1098;48.940;8.962;2023-04-28T06:12:07;98188.72;;;12.01;100.00
2184;BME280;1098;48.940;8.962;2023-04-28T06:14:35;98187.31;;;12.16;100.00
2184;BME280;1098;48.940;8.962;2023-04-28T06:17:06;98181.44;;;12.52;100.00
2184;BME280;1098;48.940;8.962;2023-04-28T06:19:35;98174.56;;;13.00;100.00
2184;BME280;1098;48.940;8.962;2023-04-28T06:22:03;98166.28;;;13.12;100.00
2184;BME280;1098;48.940;8.962;2023-04-28T06:24:31;98175.75;;;12.87;100.00
2184;BME280;1098;48.940;8.962;2023-04-28T06:27:03;98165.16;;;13.46;100.00
2184;BME280;1098;48.940;8.962;2023-04-28T06:29:32;98155.97;;;13.30;100.00
2184;BME280;1098;48.940;8.962;2023-04-28T06:32:00;98153.81;;;13.76;100.00
2184;BME280;1098;48.940;8.962;2023-04-28T06:34:31;98152.22;;;13.80;100.00
2184;BME280;1098;48.940;8.962;2023-04-28T06:36:59;98156.41;;;13.66;100.00
2184;BME280;1098;48.940;8.962;2023-04-28T06:39:27;98151.72;;;13.83;100.00
2184;BME280;1098;48.940;8.962;2023-04-28T06:41:55;98131.31;;;14.07;100.00
2184;BME280;1098;48.940;8.962;2023-04-28T06:44:27;98135.47;;;14.20;100.00
2184;BME280;1098;48.940;8.962;2023-04-28T06:46:55;98140.03;;;14.09;100.00
2184;BME280;1098;48.940;8.962;2023-04-28T06:49:23;98135.00;;;13.96;100.00
2184;BME280;1098;48.940;8.962;2023-04-28T06:51:58;98146.78;;;13.80;100.00
2184;BME280;1098;48.940;8.962;2023-04-28T06:54:29;98148.56;;;13.43;100.00
2184;BME280;1098;48.940;8.962;2023-04-28T06:56:58;98154.22;;;13.90;100.00
2184;BME280;1098;48.940;8.962;2023-04-28T06:59:27;98154.88;;;13.48;100.00
2184;BME280;1098;48.940;8.962;2023-04-28T07:01:55;98159.97;;;13.66;100.00
2184;BME280;1098;48.940;8.962;2023-04-28T07:04:23;98156.28;;;13.56;100.00
2184;BME280;1098;48.940;8.962;2023-04-28T07:06:54;98158.00;;;13.18;100.00
2184;BME280;1098;48.940;8.962;2023-04-28T07:09:22;98172.50;;;13.07;100.00
2184;BME280;1098;48.940;8.962;2023-04-28T07:11:50;98197.88;;;12.62;100.00
2184;BME280;1098;48.940;8.962;2023-04-28T07:14:19;98206.47;;;12.26;100.00
2184;BME280;1098;48.940;8.962;2023-04-28T07:16:51;98224.75;;;12.19;100.00
2184;BME280;1098;48.940;8.962;2023-04-28T07:19:19;98226.97;;;12.05;100.00
2184;BME280;1098;48.940;8.962;2023-04-28T07:21:47;98228.44;;;12.13;100.00
2184;BME280;1098;48.940;8.962;2023-04-28T07:24:15;98230.19;;;11.90;100.00
2184;BME280;1098;48.940;8.962;2023-04-28T07:26:44;98249.19;;;11.67;100.00
2184;BME280;1098;48.940;8.962;2023-04-28T07:29:12;98253.38;;;11.86;100.00
2184;BME280;1098;48.940;8.962;2023-04-28T07:31:41;98270.22;;;11.88;100.00
2184;BME280;1098;48.940;8.962;2023-04-28T07:34:10;98273.06;;;11.70;100.00
2184;BME280;1098;48.940;8.962;2023-04-28T07:36:38;98279.09;;;11.49;100.00
2184;BME280;1098;48.940;8.962;2023-04-28T07:39:09;98277.56;;;11.53;100.00
2184;BME280;1098;48.940;8.962;2023-04-28T07:41:37;98283.34;;;11.56;100.00
2184;BME280;1098;48.940;8.962;2023-04-28T07:44:05;98304.50;;;11.59;100.00
2184;BME280;1098;48.940;8.962;2023-04-28T07:46:34;98302.16;;;11.63;100.00
2184;BME280;1098;48.940;8.962;2023-04-28T07:49:02;98304.66;;;11.41;100.00
2184;BME280;1098;48.940;8.962;2023-04-28T07:51:32;98309.94;;;11.48;100.00
2184;BME280;1098;48.940;8.962;2023-04-28T07:54:00;98327.13;;;11.42;100.00
2184;BME280;1098;48.940;8.962;2023-04-28T07:56:28;98344.41;;;11.41;100.00
2184;BME280;1098;48.940;8.962;2023-04-28T07:58:56;98326.38;;;11.69;100.00
2184;BME280;1098;48.940;8.962;2023-04-28T08:01:25;98311.44;;;11.67;100.00
2184;BME280;1098;48.940;8.962;2023-04-28T08:03:53;98313.56;;;11.53;100.00
2184;BME280;1098;48.940;8.962;2023-04-28T08:06:21;98306.38;;;11.82;100.00
2184;BME280;1098;48.940;8.962;2023-04-28T08:08:50;98310.16;;;12.10;100.00
2184;BME280;1098;48.940;8.962;2023-04-28T08:11:19;98320.03;;;12.16;100.00
2184;BME280;1098;48.940;8.962;2023-04-28T08:13:47;98314.75;;;12.09;100.00
2184;BME280;1098;48.940;8.962;2023-04-28T08:16:15;98318.41;;;12.15;100.00
2184;BME280;1098;48.940;8.962;2023-04-28T08:18:43;98294.53;;;12.28;100.00
2184;BME280;1098;48.940;8.962;2023-04-28T08:21:14;98302.59;;;13.02;100.00
2184;BME280;1098;48.940;8.962;2023-04-28T08:23:44;98290.59;;;13.15;100.00
2184;BME280;1098;48.940;8.962;2023-04-28T08:26:14;98290.84;;;12.80;100.00
2184;BME280;1098;48.940;8.962;2023-04-28T08:28:42;98292.88;;;12.89;100.00
2184;BME280;1098;48.940;8.962;2023-04-28T08:31:10;98304.50;;;13.01;100.00
2184;BME280;1098;48.940;8.962;2023-04-28T08:33:38;98308.03;;;13.02;100.00
2184;BME280;1098;48.940;8.962;2023-04-28T08:36:10;98302.72;;;13.24;100.00
2184;BME280;1098;48.940;8.962;2023-04-28T08:38:40;98291.38;;;13.27;100.00
2184;BME280;1098;48.940;8.962;2023-04-28T08:41:08;98287.97;;;13.36;100.00
2184;BME280;1098;48.940;8.962;2023-04-28T08:43:40;98289.06;;;13.57;100.00
2184;BME280;1098;48.940;8.962;2023-04-28T08:46:13;98283.78;;;13.89;100.00
2184;BME280;1098;48.940;8.962;2023-04-28T08:48:43;98274.06;;;13.71;100.00
2184;BME280;1098;48.940;8.962;2023-04-28T08:51:13;98268.25;;;13.85;100.00
2184;BME280;1098;48.940;8.962;2023-04-28T08:53:43;98281.06;;;13.89;100.00
2184;BME280;1098;48.940;8.962;2023-04-28T08:56:31;98278.59;;;13.88;100.00
2184;BME280;1098;48.940;8.962;2023-04-28T08:59:02;98281.81;;;13.63;100.00
2184;BME280;1098;48.940;8.962;2023-04-28T09:01:30;98281.56;;;13.86;100.00
2184;BME280;1098;48.940;8.962;2023-04-28T09:03:59;98284.84;;;13.88;100.00
2184;BME280;1098;48.940;8.962;2023-04-28T09:06:30;98293.53;;;13.13;100.00
2184;BME280;1098;48.940;8.962;2023-04-28T09:11:49;98330.03;;;12.72;100.00
2184;BME280;1098;48.940;8.962;2023-04-28T09:14:18;98325.72;;;12.88;100.00
2184;BME280;1098;48.940;8.962;2023-04-28T09:16:46;98330.41;;;13.43;100.00
2184;BME280;1098;48.940;8.962;2023-04-28T09:19:15;98318.25;;;13.67;100.00
2184;BME280;1098;48.940;8.962;2023-04-28T09:21:46;98312.16;;;13.21;100.00
2184;BME280;1098;48.940;8.962;2023-04-28T09:24:24;98306.56;;;13.28;100.00
2184;BME280;1098;48.940;8.962;2023-04-28T09:26:52;98302.59;;;13.35;100.00
2184;BME280;1098;48.940;8.962;2023-04-28T09:29:23;98292.84;;;14.22;100.00
2184;BME280;1098;48.940;8.962;2023-04-28T09:31:54;98278.72;;;14.73;100.00
2184;BME280;1098;48.940;8.962;2023-04-28T09:34:41;98265.69;;;14.75;100.00
2184;BME280;1098;48.940;8.962;2023-04-28T09:37:13;98255.88;;;14.74;100.00
2184;BME280;1098;48.940;8.962;2023-04-28T09:39:43;98267.44;;;14.92;100.00
2184;BME280;1098;48.940;8.962;2023-04-28T09:42:23;98260.25;;;14.75;100.00
2184;BME280;1098;48.940;8.962;2023-04-28T09:44:58;98280.03;;;15.03;100.00
2184;BME280;1098;48.940;8.962;2023-04-28T09:47:31;98261.75;;;15.35;100.00
2184;BME280;1098;48.940;8.962;2023-04-28T09:50:01;98241.50;;;15.63;100.00
2184;BME280;1098;48.940;8.962;2023-04-28T09:52:30;98250.09;;;16.02;100.00
2184;BME280;1098;48.940;8.962;2023-04-28T09:55:00;98246.63;;;15.55;100.00
2184;BME280;1098;48.940;8.962;2023-04-28T09:57:29;98240.22;;;15.86;100.00
2184;BME280;1098;48.940;8.962;2023-04-28T09:59:59;98246.00;;;15.42;100.00
2184;BME280;1098;48.940;8.962;2023-04-28T10:02:30;98237.81;;;15.37;100.00
2184;BME280;1098;48.940;8.962;2023-04-28T10:05:09;98250.09;;;15.45;100.00
2184;BME280;1098;48.940;8.962;2023-04-28T10:07:39;98255.09;;;15.58;100.00
2184;BME280;1098;48.940;8.962;2023-04-28T10:10:07;98236.88;;;16.77;100.00
2184;BME280;1098;48.940;8.962;2023-04-28T10:12:35;98209.84;;;16.86;100.00
2184;BME280;1098;48.940;8.962;2023-04-28T10:15:07;98211.47;;;16.56;100.00
2184;BME280;1098;48.940;8.962;2023-04-28T10:17:36;98211.19;;;16.63;100.00
2184;BME280;1098;48.940;8.962;2023-04-28T10:20:06;98205.22;;;16.86;100.00
2184;BME280;1098;48.940;8.962;2023-04-28T10:22:40;98208.22;;;16.69;100.00
2184;BME280;1098;48.940;8.962;2023-04-28T10:25:17;98214.50;;;16.65;100.00
2184;BME280;1098;48.940;8.962;2023-04-28T10:27:53;98221.88;;;16.79;100.00
2184;BME280;1098;48.940;8.962;2023-04-28T10:30:25;98228.97;;;16.96;100.00
2184;BME280;1098;48.940;8.962;2023-04-28T10:35:54;98224.31;;;16.61;100.00
2184;BME280;1098;48.940;8.962;2023-04-28T10:38:25;98228.94;;;17.16;100.00
2184;BME280;1098;48.940;8.962;2023-04-28T10:40:53;98225.69;;;16.99;100.00
2184;BME280;1098;48.940;8.962;2023-04-28T10:43:34;98223.50;;;16.75;100.00
2184;BME280;1098;48.940;8.962;2023-04-28T10:46:08;98231.13;;;16.89;100.00
2184;BME280;1098;48.940;8.962;2023-04-28T10:48:51;98236.06;;;17.02;100.00
2184;BME280;1098;48.940;8.962;2023-04-28T10:51:23;98227.47;;;17.49;100.00
2184;BME280;1098;48.940;8.962;2023-04-28T10:56:38;98222.63;;;17.26;100.00
2184;BME280;1098;48.940;8.962;2023-04-28T11:01:52;98220.69;;;17.26;100.00
2184;BME280;1098;48.940;8.962;2023-04-28T11:04:20;98230.81;;;17.26;100.00
2184;BME280;1098;48.940;8.962;2023-04-28T11:09:46;98236.00;;;17.32;100.00
2184;BME280;1098;48.940;8.962;2023-04-28T11:12:15;98233.25;;;17.37;100.00
2184;BME280;1098;48.940;8.962;2023-04-28T11:14:44;98240.16;;;16.89;100.00
2184;BME280;1098;48.940;8.962;2023-04-28T11:17:14;98247.78;;;16.87;100.00
2184;BME280;1098;48.940;8.962;2023-04-28T11:19:45;98244.50;;;17.10;100.00
2184;BME280;1098;48.940;8.962;2023-04-28T11:22:14;98241.25;;;16.98;100.00
2184;BME280;1098;48.940;8.962;2023-04-28T11:24:53;98239.88;;;16.96;100.00
2184;BME280;1098;48.940;8.962;2023-04-28T11:27:25;98235.25;;;16.81;100.00
2184;BME280;1098;48.940;8.962;2023-04-28T11:29:53;98239.88;;;16.91;100.00
2184;BME280;1098;48.940;8.962;2023-04-28T11:32:28;98240.66;;;17.06;100.00
2184;BME280;1098;48.940;8.962;2023-04-28T11:34:57;98249.09;;;17.45;100.00
2184;BME280;1098;48.940;8.962;2023-04-28T11:37:25;98249.22;;;17.90;100.00
2184;BME280;1098;48.940;8.962;2023-04-28T11:39:53;98230.63;;;18.41;100.00
2184;BME280;1098;48.940;8.962;2023-04-28T11:42:23;98216.81;;;18.17;100.00
2184;BME280;1098;48.940;8.962;2023-04-28T11:44:53;98229.44;;;17.43;100.00
2184;BME280;1098;48.940;8.962;2023-04-28T11:47:29;98227.47;;;17.49;100.00
2184;BME280;1098;48.940;8.962;2023-04-28T11:50:02;98230.56;;;17.22;100.00
2184;BME280;1098;48.940;8.962;2023-04-28T11:52:30;98238.16;;;17.45;100.00
2184;BME280;1098;48.940;8.962;2023-04-28T11:54:58;98248.50;;;17.53;100.00
2184;BME280;1098;48.940;8.962;2023-04-28T11:57:28;98260.06;;;17.10;100.00
2184;BME280;1098;48.940;8.962;2023-04-28T12:00:10;98254.06;;;17.18;100.00
2184;BME280;1098;48.940;8.962;2023-04-28T12:02:40;98267.72;;;16.98;100.00
2184;BME280;1098;48.940;8.962;2023-04-28T12:05:09;98270.16;;;16.89;100.00
2184;BME280;1098;48.940;8.962;2023-04-28T12:07:40;98288.56;;;16.21;100.00
2184;BME280;1098;48.940;8.962;2023-04-28T12:10:12;98306.38;;;16.39;100.00
2184;BME280;1098;48.940;8.962;2023-04-28T12:12:43;98318.38;;;16.38;100.00
2184;BME280;1098;48.940;8.962;2023-04-28T12:15:21;98312.06;;;16.32;100.00
2184;BME280;1098;48.940;8.962;2023-04-28T12:17:52;98305.50;;;16.18;100.00
2184;BME280;1098;48.940;8.962;2023-04-28T12:20:35;98315.56;;;16.18;100.00
2184;BME280;1098;48.940;8.962;2023-04-28T12:23:04;98302.28;;;16.52;100.00
2184;BME280;1098;48.940;8.962;2023-04-28T12:25:41;98295.00;;;16.72;100.00
2184;BME280;1098;48.940;8.962;2023-04-28T12:28:10;98292.78;;;16.64;100.00
2184;BME280;1098;48.940;8.962;2023-04-28T12:30:38;98263.28;;;16.51;100.00
2184;BME280;1098;48.940;8.962;2023-04-28T12:33:21;98277.75;;;16.41;100.00
2184;BME280;1098;48.940;8.962;2023-04-28T12:35:50;98260.88;;;17.15;100.00
2184;BME280;1098;48.940;8.962;2023-04-28T12:38:22;98245.06;;;16.97;100.00
2184;BME280;1098;48.940;8.962;2023-04-28T12:40:50;98245.31;;;17.16;100.00
2184;BME280;1098;48.940;8.962;2023-04-28T12:43:21;98225.66;;;17.19;100.00
2184;BME280;1098;48.940;8.962;2023-04-28T12:45:50;98227.78;;;17.42;100.00
2184;BME280;1098;48.940;8.962;2023-04-28T12:48:19;98227.13;;;17.81;100.00
2184;BME280;1098;48.940;8.962;2023-04-28T12:50:50;98188.09;;;18.53;100.00
2184;BME280;1098;48.940;8.962;2023-04-28T12:53:18;98176.91;;;18.50;100.00
2184;BME280;1098;48.940;8.962;2023-04-28T12:55:47;98172.25;;;18.50;100.00
2184;BME280;1098;48.940;8.962;2023-04-28T12:58:15;98186.34;;;19.02;100.00
2184;BME280;1098;48.940;8.962;2023-04-28T13:00:45;98192.56;;;18.44;100.00
2184;BME280;1098;48.940;8.962;2023-04-28T13:03:14;98182.88;;;18.62;100.00
2184;BME280;1098;48.940;8.962;2023-04-28T13:05:42;98181.91;;;18.43;100.00
2184;BME280;1098;48.940;8.962;2023-04-28T13:08:12;98189.63;;;17.92;100.00
2184;BME280;1098;48.940;8.962;2023-04-28T13:10:40;98188.16;;;18.48;100.00
2184;BME280;1098;48.940;8.962;2023-04-28T13:13:08;98191.94;;;17.59;100.00
2184;BME280;1098;48.940;8.962;2023-04-28T13:15:36;98189.22;;;18.13;100.00
2184;BME280;1098;48.940;8.962;2023-04-28T13:18:05;98169.38;;;19.29;100.00
2184;BME280;1098;48.940;8.962;2023-04-28T13:20:33;98162.72;;;18.82;100.00
2184;BME280;1098;48.940;8.962;2023-04-28T13:23:01;98166.38;;;19.25;100.00
2184;BME280;1098;48.940;8.962;2023-04-28T13:25:30;98175.09;;;19.03;100.00
2184;BME280;1098;48.940;8.962;2023-04-28T13:28:01;98189.78;;;18.88;100.00
2184;BME280;1098;48.940;8.962;2023-04-28T13:30:29;98189.22;;;19.15;100.00
2184;BME280;1098;48.940;8.962;2023-04-28T13:32:57;98183.13;;;19.23;100.00
2184;BME280;1098;48.940;8.962;2023-04-28T13:35:25;98185.91;;;18.61;100.00
2184;BME280;1098;48.940;8.962;2023-04-28T13:37:54;98193.81;;;18.62;100.00
2184;BME280;1098;48.940;8.962;2023-04-28T13:40:31;98193.81;;;18.62;100.00